메인 페이지
METAR-TAF:

METAR-TAF

공항 :

트리부반 국제공항

카트만두, 네팔

위도: 27-42N, 경도: 085-22E, 고도: 1337m

현재 날씨관측

예보는 16분 전, 10:20시(UTC)에 발표되었습니다.
7kt
온도 19°C
습도 52%
기압 1014 hPa
시정: 6000m
고도 1500ft 상공 구름 조금

METAR: VNKT 161020Z 28007KT 6000 FEW015 19/09 Q1014 NOSIG

시각: 16:21 (10:36 UTC)

예보

예보는 5 시간 36분 전, 05:00시(UTC)에 발표되었습니다.
예보 대상 시간: 16일 06시부터 17일 06시까지 (UTC)
3kt
시정: 4000m
고도 1500ft 상공 구름 조금
연무
전환 중
16일 07시부터 16일 08시까지 (UTC)
7kt
시정: 7000m
고도 2000ft 상공 구름 조금
전환 중
16일 13시부터 16일 15시까지 (UTC)
동남동2kt
시정: 6000m
고도 1500ft 상공 구름 조금
전환 중
17일 00시부터 17일 02시까지 (UTC)
2kt
시정: 5000m
고도 1000ft 상공 구름 조금
박무
확률 30%
17일 01시부터 17일 03시까지 (UTC)
시정: 2500m

TAF: VNKT 160500Z 1606/1706 19003KT 4000 HZ FEW015 BECMG 1607/1608 26007KT 7000 FEW020 BECMG 1613/1615 12002KT 6000 FEW015 BECMG 1700/1702 10002KT 5000 BR FEW010 PROB30 1701/1703 2500 BR/HZ

4,000개 이상의 공항 관측 자료 및 예보 (METAR 및 TAF 보고).

지도상에서 검색 가능한 기상관측소가 노란 점과 빨간 점으로 표시되어 있습니다.

기상관측소 명을 보려면 표시 위로 마우스를 이동하세요.

날씨 관측과 예보를 보려면 클릭하세요.

지도 변경 : 확대하려면 엑스 표시가 있는 녹색 버튼, 축소하려면 빼기 표시가 있는 녹색 버튼, 다음 페이지의 지도를 보려면 녹색 화살표를 클릭하세요.


METAR-TAF: